Time;durP1;ratioP1;P1;durP2;ratioP2;P2;SDS_P1;SDS_P2;PMS_P1;PMS_P2;Temp;Humidity;BMP_temperature;BMP_pressure;BME280_temperature;BME280_humidity;BME280_pressure;Samples;Min_cycle;Max_cycle;Signal;HPM_P1;HPM_P2
2021/04/05 04:51:59;;;;;;;;;;;3.90;99.90;;;;;;5251497;23;19929;-83
2021/04/05 04:54:26;;;;;;;;;;;3.90;99.90;;;;;;4994442;28;20060;-83
2021/04/05 04:56:53;;;;;;;;;;;3.90;99.90;;;;;;4975113;28;19965;-83
2021/04/05 04:59:19;;;;;;;;;;;4.00;99.90;;;;;;4976839;28;19929;-82
2021/04/05 05:01:46;;;;;;;;;;;4.10;99.90;;;;;;4994685;28;19922;-84
2021/04/05 05:04:16;;;;;;;;;;;4.00;99.90;;;;;;4957098;28;19946;-84
2021/04/05 05:06:43;;;;;;;;;;;4.00;99.90;;;;;;4974784;28;20294;-84
2021/04/05 05:09:10;;;;;;;;;;;4.00;99.90;;;;;;4972937;28;19925;-83
2021/04/05 05:11:37;;;;;;;;;;;4.10;99.90;;;;;;4993535;28;20272;-84
2021/04/05 05:14:03;;;;;;;;;;;4.10;99.90;;;;;;4975197;28;19921;-84
2021/04/05 05:16:30;;;;;;;;;;;4.10;99.90;;;;;;4976442;28;19922;-83
2021/04/05 05:18:58;;;;;;;;;;;4.10;99.90;;;;;;4995693;28;19925;-83
2021/04/05 05:21:26;;;;;;;;;;;4.10;99.90;;;;;;4999400;28;19929;-84
2021/04/05 05:23:53;;;;;;;;;;;4.20;99.90;;;;;;4982288;28;19932;-82
2021/04/05 05:26:22;;;;;;;;;;;4.20;99.90;;;;;;4957142;28;19921;-84
2021/04/05 05:28:51;;;;;;;;;;;4.20;99.90;;;;;;4981053;28;19928;-82
2021/04/05 05:31:18;;;;;;;;;;;4.20;99.90;;;;;;5001205;28;19925;-84
2021/04/05 05:33:44;;;;;;;;;;;4.30;99.90;;;;;;4988859;28;20337;-85
2021/04/05 05:36:11;;;;;;;;;;;4.40;99.90;;;;;;4994845;28;20298;-85
2021/04/05 05:38:38;;;;;;;;;;;4.40;99.90;;;;;;4991604;28;20350;-83
2021/04/05 05:41:10;;;;;;;;;;;4.50;99.90;;;;;;4976878;28;19922;-85
2021/04/05 05:43:42;;;;;;;;;;;4.50;99.90;;;;;;4975349;28;20020;-83
2021/04/05 05:46:13;;;;;;;;;;;4.50;99.90;;;;;;4975691;28;19906;-84
2021/04/05 05:48:51;;;;;;;;;;;4.50;99.90;;;;;;4983726;28;19922;-84
2021/04/05 05:51:20;;;;;;;;;;;4.50;99.90;;;;;;4974064;28;20302;-84
2021/04/05 05:53:54;;;;;;;;;;;4.50;99.90;;;;;;4958183;28;20028;-84
2021/04/05 05:56:29;;;;;;;;;;;4.50;99.90;;;;;;4991626;28;19926;-83
2021/04/05 05:59:01;;;;;;;;;;;4.60;99.90;;;;;;4994962;28;19929;-83
2021/04/05 06:01:39;;;;;;;;;;;4.60;99.90;;;;;;4991413;28;20024;-84
2021/04/05 06:04:10;;;;;;;;;;;4.50;99.90;;;;;;4959199;28;19922;-84
2021/04/05 06:06:49;;;;;;;;;;;4.30;99.90;;;;;;4989972;28;19926;-83
2021/04/05 06:09:19;;;;;;;;;;;4.20;99.90;;;;;;4994249;28;19922;-83
2021/04/05 06:11:48;;;;;;;;;;;4.20;99.90;;;;;;4957774;28;20372;-88
2021/04/05 06:14:23;;;;;;;;;;;4.40;99.90;;;;;;4981025;28;19922;-88
2021/04/05 06:55:56;;;;;;;;;;;5.20;99.90;;;;;;4994981;23;19932;-67
2021/04/05 06:58:40;;;;;;;;;;;5.30;99.90;;;;;;4999651;28;20376;-67
2021/04/05 07:01:19;;;;;;;;;;;5.30;99.90;;;;;;5006932;28;19927;-68
2021/04/05 07:04:03;;;;;;;;;;;5.40;99.90;;;;;;4998478;28;20381;-69
2021/04/05 07:06:36;;;;;;;;;;;5.20;99.90;;;;;;4995692;28;19933;-69
2021/04/05 07:11:52;;;;;;;;;;;5.30;99.90;;;;;;4947037;28;19977;-64
2021/04/05 07:14:28;;;;;;;;;;;5.80;99.90;;;;;;4951059;29;19985;-64
2021/04/05 07:16:57;;;;;;;;;;;5.90;99.90;;;;;;4949887;28;19998;-64
2021/04/05 07:19:31;;;;;;;;;;;6.40;99.90;;;;;;4947528;28;19954;-63
2021/04/05 07:22:04;;;;;;;;;;;6.70;99.90;;;;;;4953273;28;20389;-64
2021/04/05 07:24:33;;;;;;;;;;;6.90;99.90;;;;;;4954717;29;20370;-64
2021/04/05 07:27:03;;;;;;;;;;;7.00;99.90;;;;;;4952132;28;19923;-65
2021/04/05 07:29:34;;;;;;;;;;;7.00;99.90;;;;;;4953859;29;20405;-64
2021/04/05 07:32:03;;;;;;;;;;;7.10;99.90;;;;;;4950395;28;20013;-65
2021/04/05 07:34:47;;;;;;;;;;;7.10;99.90;;;;;;4949160;29;19973;-65
2021/04/05 07:37:33;;;;;;;;;;;7.10;99.90;;;;;;4956068;28;20021;-65
2021/04/05 07:40:03;;;;;;;;;;;7.20;99.90;;;;;;4954716;29;19926;-64
2021/04/05 07:42:37;;;;;;;;;;;7.30;99.90;;;;;;4952459;28;19953;-65
2021/04/05 07:45:08;;;;;;;;;;;7.30;99.90;;;;;;4959310;28;19953;-64
2021/04/05 07:47:37;;;;;;;;;;;7.40;99.90;;;;;;4947121;28;19927;-65
2021/04/05 07:50:07;;;;;;;;;;;7.40;99.90;;;;;;4964718;28;19922;-64
2021/04/05 07:52:38;;;;;;;;;;;7.50;99.90;;;;;;4950801;28;19922;-64
2021/04/05 07:55:05;;;;;;;;;;;7.50;99.90;;;;;;4954911;29;20029;-64
2021/04/05 07:57:36;;;;;;;;;;;7.60;99.90;;;;;;4952177;28;19978;-64
2021/04/05 08:00:09;;;;;;;;;;;7.60;99.90;;;;;;4936767;29;19968;-64
2021/04/05 08:02:43;;;;;;;;;;;7.60;99.90;;;;;;4942035;28;19922;-64
2021/04/05 08:05:25;;;;;;;;;;;7.70;99.90;;;;;;4950198;29;20334;-63
2021/04/05 08:08:04;;;;;;;;;;;7.70;99.90;;;;;;4953000;28;19933;-63
2021/04/05 08:10:32;;;;;;;;;;;7.70;99.90;;;;;;4955674;28;20365;-64
2021/04/05 08:13:11;;;;;;;;;;;7.70;99.90;;;;;;4943190;28;19933;-65
2021/04/05 08:15:38;;;;;;;;;;;7.70;99.90;;;;;;4953625;28;19930;-65
2021/04/05 08:18:14;;;;;;;;;;;7.70;99.90;;;;;;4947802;28;19922;-64
2021/04/05 08:20:43;;;;;;;;;;;7.80;99.90;;;;;;4950948;29;19927;-65
2021/04/05 08:23:12;;;;;;;;;;;7.70;99.90;;;;;;4944783;28;19922;-65
2021/04/05 08:25:43;;;;;;;;;;;7.60;99.90;;;;;;4953146;28;20379;-64
2021/04/05 08:28:17;;;;;;;;;;;7.70;99.90;;;;;;4950302;28;20333;-64
2021/04/05 08:30:48;;;;;;;;;;;7.70;99.90;;;;;;4951124;28;19960;-68
2021/04/05 08:33:27;;;;;;;;;;;7.80;99.90;;;;;;4947159;28;19929;-68
2021/04/05 08:35:58;;;;;;;;;;;7.80;99.90;;;;;;4953535;29;19929;-64
2021/04/05 08:38:26;;;;;;;;;;;7.80;99.90;;;;;;4951089;28;20374;-65
2021/04/05 08:40:58;;;;;;;;;;;7.70;99.90;;;;;;4936209;28;19926;-64
2021/04/05 08:43:30;;;;;;;;;;;7.70;99.90;;;;;;4949252;28;19922;-64
2021/04/05 08:46:00;;;;;;;;;;;7.60;99.90;;;;;;4972509;28;20356;-63
2021/04/05 08:48:28;;;;;;;;;;;7.60;99.90;;;;;;4965223;28;19926;-65
2021/04/05 08:50:56;;;;;;;;;;;7.50;99.90;;;;;;4963830;28;19926;-64
2021/04/05 08:53:24;;;;;;;;;;;7.60;99.90;;;;;;4963639;28;19926;-65
2021/04/05 08:55:51;;;;;;;;;;;7.60;99.90;;;;;;4961995;28;19926;-65
2021/04/05 08:58:24;;;;;;;;;;;7.50;99.90;;;;;;4964846;28;19930;-66
2021/04/05 09:00:54;;;;;;;;;;;7.50;99.90;;;;;;4963535;28;19922;-64
2021/04/05 09:03:23;;;;;;;;;;;7.60;99.90;;;;;;4962336;28;19952;-64
2021/04/05 09:05:50;;;;;;;;;;;7.60;99.90;;;;;;4963803;28;19926;-64
2021/04/05 09:08:19;;;;;;;;;;;7.60;99.90;;;;;;4963866;28;19928;-63
2021/04/05 09:10:48;;;;;;;;;;;7.60;99.90;;;;;;4967095;28;19921;-65
2021/04/05 09:13:17;;;;;;;;;;;7.70;99.90;;;;;;4972228;28;19957;-64
2021/04/05 09:16:02;;;;;;;;;;;7.70;99.90;;;;;;4970224;28;20397;-64
2021/04/05 09:18:47;;;;;;;;;;;7.60;99.90;;;;;;4972141;28;20223;-64
2021/04/05 09:21:20;;;;;;;;;;;7.60;99.90;;;;;;4969543;28;20362;-63
2021/04/05 09:24:01;;;;;;;;;;;7.50;99.90;;;;;;4971993;28;19922;-63
2021/04/05 09:26:40;;;;;;;;;;;7.50;99.90;;;;;;4965021;28;19929;-64
2021/04/05 09:29:08;;;;;;;;;;;7.50;99.90;;;;;;4973190;28;19922;-63
2021/04/05 09:31:55;;;;;;;;;;;7.50;99.90;;;;;;4969710;28;19961;-64
2021/04/05 09:34:35;;;;;;;;;;;7.50;99.90;;;;;;4972093;28;20300;-64
2021/04/05 09:37:14;;;;;;;;;;;7.50;99.90;;;;;;4969581;28;19922;-64
2021/04/05 09:40:05;;;;;;;;;;;7.50;99.90;;;;;;4971554;28;19980;-64
2021/04/05 09:42:51;;;;;;;;;;;7.50;99.90;;;;;;4969276;28;19922;-65
2021/04/05 09:45:22;;;;;;;;;;;7.50;99.90;;;;;;4982534;28;19952;-64
2021/04/05 09:48:07;;;;;;;;;;;7.60;99.90;;;;;;4972285;28;19922;-65
2021/04/05 09:50:38;;;;;;;;;;;7.60;99.90;;;;;;4955522;28;19929;-64
2021/04/05 09:53:20;;;;;;;;;;;7.70;99.90;;;;;;4969374;28;20442;-64
2021/04/05 09:55:48;;;;;;;;;;;7.50;99.90;;;;;;4971585;28;19922;-64
2021/04/05 09:58:17;;;;;;;;;;;7.50;99.90;;;;;;4969825;28;19929;-64
2021/04/05 10:00:47;;;;;;;;;;;7.30;99.90;;;;;;4971827;28;19960;-63
2021/04/05 10:03:16;;;;;;;;;;;7.30;99.90;;;;;;4975829;28;20452;-64
2021/04/05 10:05:44;;;;;;;;;;;7.30;99.90;;;;;;4975476;28;19926;-63
2021/04/05 10:08:15;;;;;;;;;;;7.30;99.90;;;;;;4973274;28;19929;-64
2021/04/05 10:10:44;;;;;;;;;;;7.20;99.90;;;;;;4976117;28;19922;-63
2021/04/05 10:13:11;;;;;;;;;;;7.20;99.90;;;;;;4973860;28;19922;-63
2021/04/05 10:15:37;;;;;;;;;;;7.20;99.90;;;;;;4976660;28;19932;-64
2021/04/05 10:18:07;;;;;;;;;;;7.10;99.90;;;;;;4970744;28;19961;-64
2021/04/05 10:20:34;;;;;;;;;;;7.00;99.90;;;;;;4964068;28;19933;-65
2021/04/05 10:23:03;;;;;;;;;;;6.90;99.90;;;;;;4952210;28;20350;-64
2021/04/05 10:25:30;;;;;;;;;;;6.90;99.90;;;;;;4971714;28;19922;-65
2021/04/05 10:27:59;;;;;;;;;;;6.90;99.90;;;;;;4969434;28;19922;-64
2021/04/05 10:30:31;;;;;;;;;;;6.80;99.90;;;;;;4968268;28;20303;-65
2021/04/05 10:33:00;;;;;;;;;;;6.80;99.90;;;;;;4964790;28;19930;-66
2021/04/05 10:35:28;;;;;;;;;;;6.70;99.90;;;;;;4967418;28;19926;-64
2021/04/05 10:37:54;;;;;;;;;;;6.70;99.90;;;;;;4952029;28;19946;-63
2021/04/05 10:40:21;;;;;;;;;;;6.70;99.90;;;;;;4962723;28;20000;-66
2021/04/05 10:42:49;;;;;;;;;;;6.80;99.90;;;;;;4967494;28;19926;-66
2021/04/05 10:45:21;;;;;;;;;;;6.70;99.90;;;;;;4967558;28;19922;-66
2021/04/05 10:47:50;;;;;;;;;;;6.70;99.90;;;;;;4956606;28;19922;-66
2021/04/05 10:50:17;;;;;;;;;;;6.70;99.90;;;;;;4967322;28;20345;-66
2021/04/05 10:52:44;;;;;;;;;;;6.70;99.90;;;;;;4969475;28;19950;-66
2021/04/05 10:55:16;;;;;;;;;;;6.70;99.90;;;;;;4968404;28;19922;-66
2021/04/05 10:57:44;;;;;;;;;;;6.60;99.90;;;;;;4973390;28;19925;-66
2021/04/05 11:00:15;;;;;;;;;;;6.70;99.90;;;;;;4968765;28;20313;-67
2021/04/05 11:02:44;;;;;;;;;;;6.60;99.90;;;;;;4974216;28;19930;-66
2021/04/05 11:05:11;;;;;;;;;;;6.70;99.90;;;;;;4981844;28;20579;-67
2021/04/05 11:07:38;;;;;;;;;;;6.60;99.90;;;;;;4971193;28;20014;-66
2021/04/05 11:10:06;;;;;;;;;;;6.60;99.90;;;;;;4963093;28;19992;-67
2021/04/05 11:12:33;;;;;;;;;;;6.60;99.90;;;;;;4965964;28;19930;-65
2021/04/05 11:15:01;;;;;;;;;;;6.60;99.90;;;;;;4963507;28;19984;-66
2021/04/05 11:17:29;;;;;;;;;;;6.60;99.90;;;;;;4967460;28;19930;-66
2021/04/05 11:19:58;;;;;;;;;;;6.50;99.90;;;;;;4962986;28;20002;-67
2021/04/05 11:22:26;;;;;;;;;;;6.50;99.90;;;;;;4966173;28;20299;-66
2021/04/05 11:25:01;;;;;;;;;;;6.50;99.90;;;;;;4944951;28;19926;-65
2021/04/05 11:27:29;;;;;;;;;;;6.40;99.90;;;;;;4964918;28;19929;-64
2021/04/05 11:29:56;;;;;;;;;;;6.40;99.90;;;;;;4954019;28;19923;-64
2021/04/05 11:32:27;;;;;;;;;;;6.40;99.90;;;;;;4970573;28;19937;-64
2021/04/05 11:34:54;;;;;;;;;;;6.20;99.90;;;;;;4974025;28;19922;-64
2021/04/05 11:37:22;;;;;;;;;;;6.10;99.90;;;;;;4965740;28;19926;-65
2021/04/05 11:39:59;;;;;;;;;;;5.80;99.90;;;;;;4972841;28;19926;-64
2021/04/05 11:42:30;;;;;;;;;;;5.80;99.90;;;;;;4970040;28;20001;-65
2021/04/05 11:44:57;;;;;;;;;;;5.60;99.90;;;;;;4982820;28;19921;-64
2021/04/05 11:47:25;;;;;;;;;;;5.50;99.90;;;;;;4974968;28;20482;-66
2021/04/05 11:49:51;;;;;;;;;;;5.50;99.90;;;;;;4974014;28;20306;-65
2021/04/05 11:52:19;;;;;;;;;;;5.40;99.90;;;;;;4970932;28;20020;-66
2021/04/05 11:54:50;;;;;;;;;;;5.50;99.90;;;;;;4972073;28;20389;-65
2021/04/05 11:57:31;;;;;;;;;;;5.50;99.90;;;;;;4971488;28;19981;-65
2021/04/05 12:00:00;;;;;;;;;;;5.60;99.90;;;;;;4973784;28;19930;-65
2021/04/05 12:02:30;;;;;;;;;;;5.70;99.90;;;;;;4971657;28;19964;-66
2021/04/05 12:05:00;;;;;;;;;;;5.70;99.90;;;;;;4987947;28;19961;-65
2021/04/05 12:07:27;;;;;;;;;;;5.70;99.90;;;;;;4953792;28;19984;-66
2021/04/05 12:09:58;;;;;;;;;;;5.50;99.90;;;;;;4973608;28;20374;-65
2021/04/05 12:12:27;;;;;;;;;;;5.20;99.90;;;;;;4971268;28;19932;-66
2021/04/05 12:14:55;;;;;;;;;;;4.60;99.90;;;;;;4973667;28;19926;-64
2021/04/05 12:17:22;;;;;;;;;;;4.40;99.90;;;;;;4971247;28;20432;-65
2021/04/05 12:19:49;;;;;;;;;;;4.20;99.90;;;;;;4973476;28;19969;-65
2021/04/05 12:22:17;;;;;;;;;;;4.20;99.90;;;;;;4973302;28;19922;-65
2021/04/05 12:24:46;;;;;;;;;;;4.30;99.90;;;;;;4970787;28;19922;-66
2021/04/05 12:27:14;;;;;;;;;;;4.40;99.90;;;;;;4951934;28;19933;-65
2021/04/05 12:29:43;;;;;;;;;;;4.40;99.90;;;;;;4970798;28;19922;-66
2021/04/05 12:32:15;;;;;;;;;;;4.50;99.90;;;;;;4969711;28;19978;-63
2021/04/05 12:34:42;;;;;;;;;;;4.50;99.90;;;;;;4967502;28;20357;-66
2021/04/05 12:37:11;;;;;;;;;;;4.50;99.90;;;;;;4973013;28;19930;-64
2021/04/05 12:39:38;;;;;;;;;;;4.50;99.90;;;;;;4970287;28;19937;-65
2021/04/05 12:42:07;;;;;;;;;;;4.70;99.90;;;;;;4973287;28;20008;-64
2021/04/05 12:44:35;;;;;;;;;;;4.80;99.90;;;;;;4976137;28;19926;-65
2021/04/05 12:47:03;;;;;;;;;;;5.00;99.90;;;;;;4971831;28;20797;-64
2021/04/05 12:49:30;;;;;;;;;;;5.10;99.90;;;;;;4968307;28;20287;-64
2021/04/05 12:51:58;;;;;;;;;;;5.20;99.90;;;;;;4972859;28;20020;-63
2021/04/05 12:54:26;;;;;;;;;;;5.30;99.90;;;;;;4970260;28;19922;-64
2021/04/05 12:56:53;;;;;;;;;;;5.20;99.90;;;;;;4972702;28;19922;-65
2021/04/05 12:59:22;;;;;;;;;;;5.20;99.90;;;;;;4970361;28;19926;-65
2021/04/05 13:01:51;;;;;;;;;;;5.30;99.90;;;;;;4973140;28;19926;-66
2021/04/05 13:04:19;;;;;;;;;;;5.30;99.90;;;;;;4980709;28;20308;-66
2021/04/05 13:06:46;;;;;;;;;;;5.40;99.90;;;;;;4971163;28;19929;-65
2021/04/05 13:09:16;;;;;;;;;;;5.30;99.90;;;;;;4971470;28;20037;-64
2021/04/05 13:11:45;;;;;;;;;;;5.30;99.90;;;;;;4952520;28;19926;-65
2021/04/05 13:14:12;;;;;;;;;;;5.30;99.90;;;;;;4972105;28;19976;-66
2021/04/05 13:16:41;;;;;;;;;;;5.20;99.90;;;;;;4967039;28;19977;-65
2021/04/05 13:19:11;;;;;;;;;;;5.30;99.90;;;;;;4971678;28;20013;-66
2021/04/05 13:21:39;;;;;;;;;;;5.30;99.90;;;;;;4969022;28;20240;-66
2021/04/05 13:24:06;;;;;;;;;;;5.20;99.90;;;;;;4984336;28;19926;-66
2021/04/05 13:26:35;;;;;;;;;;;5.20;99.90;;;;;;4966302;28;19926;-66
2021/04/05 13:29:01;;;;;;;;;;;5.30;99.90;;;;;;4971911;28;19976;-66
2021/04/05 13:31:29;;;;;;;;;;;5.30;99.90;;;;;;4969440;28;20325;-66
2021/04/05 13:33:56;;;;;;;;;;;5.30;99.90;;;;;;4971054;28;19922;-66
2021/04/05 13:36:24;;;;;;;;;;;5.20;99.90;;;;;;4967489;28;19926;-65
2021/04/05 13:38:55;;;;;;;;;;;5.30;99.90;;;;;;4971745;28;20143;-66
2021/04/05 13:41:25;;;;;;;;;;;5.20;99.90;;;;;;4967796;28;20016;-66
2021/04/05 13:43:53;;;;;;;;;;;4.90;99.90;;;;;;4971263;28;20016;-66
2021/04/05 13:46:20;;;;;;;;;;;4.50;99.90;;;;;;4968595;28;19922;-66
2021/04/05 13:48:48;;;;;;;;;;;4.20;99.90;;;;;;4972156;28;20172;-66
2021/04/05 13:51:16;;;;;;;;;;;4.30;99.90;;;;;;4968693;28;19929;-69
2021/04/05 13:53:44;;;;;;;;;;;4.30;99.90;;;;;;4960154;28;20430;-65
2021/04/05 13:56:11;;;;;;;;;;;4.60;99.90;;;;;;4965375;28;19922;-66
2021/04/05 13:58:38;;;;;;;;;;;4.70;99.90;;;;;;4950585;28;19922;-65
2021/04/05 14:01:07;;;;;;;;;;;4.90;99.90;;;;;;4965580;28;19981;-66
2021/04/05 14:03:35;;;;;;;;;;;4.90;99.90;;;;;;4945038;28;20248;-65
2021/04/05 14:06:06;;;;;;;;;;;4.90;99.90;;;;;;4961844;28;20176;-66
2021/04/05 14:08:33;;;;;;;;;;;4.80;99.90;;;;;;4961847;28;20029;-66
2021/04/05 14:11:01;;;;;;;;;;;4.70;99.90;;;;;;4970111;28;20444;-65
2021/04/05 14:13:29;;;;;;;;;;;4.60;99.90;;;;;;4964283;28;20045;-66
2021/04/05 14:15:55;;;;;;;;;;;4.80;99.90;;;;;;4967389;28;19922;-67
2021/04/05 14:18:24;;;;;;;;;;;5.00;99.90;;;;;;4964591;28;20196;-65
2021/04/05 14:20:51;;;;;;;;;;;5.20;99.90;;;;;;4967034;28;20346;-65
2021/04/05 14:23:19;;;;;;;;;;;5.30;99.90;;;;;;4964976;28;19961;-65
2021/04/05 14:25:49;;;;;;;;;;;5.40;99.90;;;;;;4968798;28;19942;-64
2021/04/05 14:28:18;;;;;;;;;;;5.20;99.90;;;;;;4955879;28;19926;-65
2021/04/05 14:30:46;;;;;;;;;;;5.30;99.90;;;;;;4968779;28;19922;-64
2021/04/05 14:33:14;;;;;;;;;;;5.40;99.90;;;;;;4966311;28;19925;-65
2021/04/05 14:35:42;;;;;;;;;;;5.50;99.90;;;;;;4957733;28;20410;-65
2021/04/05 14:38:11;;;;;;;;;;;5.30;99.90;;;;;;4966992;28;19968;-65
2021/04/05 14:40:39;;;;;;;;;;;3.70;99.90;;;;;;4969412;28;19958;-64
2021/04/05 14:43:09;;;;;;;;;;;2.70;99.90;;;;;;4970335;28;20734;-65
2021/04/05 14:45:36;;;;;;;;;;;2.70;99.90;;;;;;4963583;28;20013;-64
2021/04/05 14:48:03;;;;;;;;;;;2.80;99.90;;;;;;4970325;28;19942;-65
2021/04/05 14:50:31;;;;;;;;;;;3.00;99.90;;;;;;4966628;28;19981;-65
2021/04/05 14:52:59;;;;;;;;;;;3.10;99.90;;;;;;4969040;28;19944;-64
2021/04/05 14:55:27;;;;;;;;;;;3.10;99.90;;;;;;4967064;28;20435;-64
2021/04/05 14:57:54;;;;;;;;;;;3.00;99.90;;;;;;4972440;28;20038;-64
2021/04/05 15:00:24;;;;;;;;;;;2.90;99.90;;;;;;4968122;28;20437;-64
2021/04/05 15:02:52;;;;;;;;;;;3.20;99.90;;;;;;4971088;28;20020;-64
2021/04/05 15:05:19;;;;;;;;;;;3.90;99.90;;;;;;4967772;28;19937;-65
2021/04/05 15:07:50;;;;;;;;;;;4.30;99.90;;;;;;4970391;28;19929;-64
2021/04/05 15:10:17;;;;;;;;;;;4.30;99.90;;;;;;4966221;28;19922;-67
2021/04/05 15:12:45;;;;;;;;;;;5.00;99.90;;;;;;4970602;28;19948;-66
2021/04/05 15:15:15;;;;;;;;;;;4.80;99.90;;;;;;4967457;28;19922;-64
2021/04/05 15:17:42;;;;;;;;;;;5.30;99.90;;;;;;4970595;28;19922;-64
2021/04/05 15:20:11;;;;;;;;;;;5.10;99.90;;;;;;4948557;28;19988;-65
2021/04/05 15:22:38;;;;;;;;;;;5.00;99.90;;;;;;4968497;28;20330;-66
2021/04/05 15:25:06;;;;;;;;;;;5.00;99.90;;;;;;4958647;28;20146;-66
2021/04/05 15:27:33;;;;;;;;;;;5.10;99.90;;;;;;4962107;28;20345;-64
2021/04/05 15:30:01;;;;;;;;;;;5.00;99.90;;;;;;4969554;28;20417;-63
2021/04/05 15:32:28;;;;;;;;;;;5.20;99.90;;;;;;4966943;28;19922;-64
2021/04/05 15:34:55;;;;;;;;;;;5.60;99.90;;;;;;4970599;28;19973;-63
2021/04/05 15:37:22;;;;;;;;;;;5.80;99.90;;;;;;4966814;28;19926;-65
2021/04/05 15:39:49;;;;;;;;;;;5.60;99.90;;;;;;4968775;28;19984;-64
2021/04/05 15:42:18;;;;;;;;;;;5.30;99.90;;;;;;4967143;28;19922;-64
2021/04/05 15:44:47;;;;;;;;;;;5.20;99.90;;;;;;4980601;28;19921;-63
2021/04/05 15:47:18;;;;;;;;;;;5.00;99.90;;;;;;4967876;28;19977;-64
2021/04/05 15:49:50;;;;;;;;;;;4.90;99.90;;;;;;4973264;28;19958;-64
2021/04/05 15:52:17;;;;;;;;;;;4.90;99.90;;;;;;4970497;28;20013;-64
2021/04/05 15:54:46;;;;;;;;;;;4.80;99.90;;;;;;4973848;28;20333;-64
2021/04/05 15:57:22;;;;;;;;;;;4.70;99.90;;;;;;4971498;28;19954;-64
2021/04/05 15:59:52;;;;;;;;;;;4.70;99.90;;;;;;4973847;28;19957;-64
2021/04/05 16:02:21;;;;;;;;;;;4.70;99.90;;;;;;4970391;28;19950;-65
2021/04/05 16:04:52;;;;;;;;;;;4.50;99.90;;;;;;4973556;28;20382;-63
2021/04/05 16:07:21;;;;;;;;;;;4.50;99.90;;;;;;4968732;28;19969;-64
2021/04/05 16:09:51;;;;;;;;;;;4.50;99.90;;;;;;4973377;28;19926;-64
2021/04/05 16:12:21;;;;;;;;;;;4.50;99.90;;;;;;4970940;28;19925;-65
2021/04/05 16:14:49;;;;;;;;;;;4.40;99.90;;;;;;4973748;28;20041;-64
2021/04/05 16:17:22;;;;;;;;;;;4.40;99.90;;;;;;4970535;28;19985;-65
2021/04/05 16:19:51;;;;;;;;;;;4.40;99.90;;;;;;5002318;23;19925;-64
2021/04/05 16:22:20;;;;;;;;;;;4.30;99.90;;;;;;4978486;28;19933;-62
2021/04/05 16:24:50;;;;;;;;;;;4.30;99.90;;;;;;5010890;28;20381;-62
2021/04/05 16:27:22;;;;;;;;;;;4.10;99.90;;;;;;5012608;28;20008;-62
2021/04/05 16:29:51;;;;;;;;;;;4.00;99.90;;;;;;4987274;28;19926;-64
2021/04/05 16:32:22;;;;;;;;;;;4.00;99.90;;;;;;4991494;28;19926;-64
2021/04/05 16:34:50;;;;;;;;;;;3.90;99.90;;;;;;4988477;28;19926;-64
2021/04/05 16:37:24;;;;;;;;;;;3.80;99.90;;;;;;4991893;28;19922;-65
2021/04/05 16:39:55;;;;;;;;;;;3.80;99.90;;;;;;4971438;28;19964;-64
2021/04/05 16:42:24;;;;;;;;;;;3.70;99.90;;;;;;4992579;28;19949;-64
2021/04/05 16:44:53;;;;;;;;;;;3.60;99.90;;;;;;4989533;28;20375;-66
2021/04/05 16:47:21;;;;;;;;;;;3.50;99.90;;;;;;4990761;28;19944;-63
2021/04/05 16:49:49;;;;;;;;;;;3.60;99.90;;;;;;4990095;28;19922;-64
2021/04/05 16:52:19;;;;;;;;;;;3.40;99.90;;;;;;4991847;28;19921;-66
2021/04/05 16:54:47;;;;;;;;;;;2.80;99.90;;;;;;4992006;28;20090;-63
2021/04/05 16:57:20;;;;;;;;;;;2.80;99.90;;;;;;4995618;28;19926;-63
2021/04/05 16:59:50;;;;;;;;;;;2.60;99.90;;;;;;4972930;28;19922;-63
2021/04/05 17:02:21;;;;;;;;;;;2.40;99.90;;;;;;4992610;28;19930;-63
2021/04/05 17:04:48;;;;;;;;;;;2.10;99.90;;;;;;4990023;28;19922;-63
2021/04/05 17:07:18;;;;;;;;;;;1.90;99.90;;;;;;4992374;28;20362;-64
2021/04/05 17:09:45;;;;;;;;;;;1.90;99.90;;;;;;4989906;28;20294;-64
2021/04/05 17:12:14;;;;;;;;;;;1.90;99.90;;;;;;4990766;28;20320;-64
2021/04/05 17:14:42;;;;;;;;;;;1.90;99.90;;;;;;4990004;28;19921;-64
2021/04/05 17:17:12;;;;;;;;;;;1.90;99.90;;;;;;4992109;28;19930;-64
2021/04/05 17:19:43;;;;;;;;;;;1.90;99.90;;;;;;4974094;28;19922;-65
2021/04/05 17:22:10;;;;;;;;;;;1.90;99.90;;;;;;4991346;28;20353;-63
2021/04/05 17:24:40;;;;;;;;;;;1.90;99.90;;;;;;4972352;28;19976;-64
2021/04/05 17:27:07;;;;;;;;;;;2.00;99.90;;;;;;4988209;28;20020;-65
2021/04/05 17:29:36;;;;;;;;;;;2.00;99.90;;;;;;4990734;28;20448;-64
2021/04/05 17:35:21;;;;;;;;;;;2.10;99.90;;;;;;4989475;28;19910;-65
2021/04/05 17:37:49;;;;;;;;;;;2.10;99.90;;;;;;4990089;28;19930;-65
2021/04/05 17:40:17;;;;;;;;;;;2.10;99.90;;;;;;4991700;28;19922;-67
2021/04/05 17:42:45;;;;;;;;;;;2.10;99.90;;;;;;4989202;28;20072;-64
2021/04/05 17:45:13;;;;;;;;;;;2.00;99.90;;;;;;4990416;28;20374;-64
2021/04/05 17:48:04;;;;;;;;;;;2.00;99.90;;;;;;4989518;28;20016;-65
2021/04/05 17:50:35;;;;;;;;;;;2.00;99.90;;;;;;4966162;28;20020;-65
2021/04/05 17:53:08;;;;;;;;;;;2.00;99.90;;;;;;4988450;28;19999;-64
2021/04/05 17:55:41;;;;;;;;;;;2.00;99.90;;;;;;4988567;28;19940;-65
2021/04/05 17:58:09;;;;;;;;;;;1.90;99.90;;;;;;4988150;28;19980;-63
2021/04/05 18:00:41;;;;;;;;;;;2.00;99.90;;;;;;4991444;28;19925;-65
2021/04/05 18:03:11;;;;;;;;;;;1.90;99.90;;;;;;4986730;28;20447;-64
2021/04/05 18:05:41;;;;;;;;;;;1.90;99.90;;;;;;4988325;28;19928;-64
2021/04/05 18:08:14;;;;;;;;;;;1.90;99.90;;;;;;4979773;28;19949;-65
2021/04/05 18:10:46;;;;;;;;;;;1.90;99.90;;;;;;4983809;28;19929;-65
2021/04/05 18:13:17;;;;;;;;;;;1.90;99.90;;;;;;4993213;28;19929;-64
2021/04/05 18:15:45;;;;;;;;;;;1.80;99.90;;;;;;4992601;28;20477;-64
2021/04/05 18:18:15;;;;;;;;;;;1.80;99.90;;;;;;4987664;28;19956;-65
2021/04/05 18:21:12;;;;;;;;;;;1.80;99.90;;;;;;4986757;28;19937;-64
2021/04/05 18:23:52;;;;;;;;;;;1.70;99.90;;;;;;4924962;29;19927;-65
2021/04/05 18:26:25;;;;;;;;;;;1.70;99.90;;;;;;4978541;28;19925;-65
2021/04/05 18:28:56;;;;;;;;;;;1.70;99.90;;;;;;4984247;28;19922;-64
2021/04/05 18:31:27;;;;;;;;;;;1.60;99.90;;;;;;4987106;28;19933;-65
2021/04/05 18:34:01;;;;;;;;;;;1.60;99.90;;;;;;4982828;28;19952;-65
2021/04/05 18:36:33;;;;;;;;;;;1.60;99.90;;;;;;4967909;28;19922;-66
2021/04/05 18:39:03;;;;;;;;;;;1.50;99.90;;;;;;4982270;28;19922;-66
2021/04/05 18:41:31;;;;;;;;;;;1.50;99.90;;;;;;4981511;28;19922;-66
2021/04/05 18:43:58;;;;;;;;;;;1.50;99.90;;;;;;4977818;28;20037;-65
2021/04/05 18:46:28;;;;;;;;;;;1.40;99.90;;;;;;4987476;28;20445;-64
2021/04/05 18:48:58;;;;;;;;;;;1.40;99.90;;;;;;4981567;28;19996;-65
2021/04/05 18:51:29;;;;;;;;;;;1.40;99.90;;;;;;4987856;28;19953;-65
2021/04/05 18:53:59;;;;;;;;;;;1.40;99.90;;;;;;4983176;28;19933;-66
2021/04/05 18:56:30;;;;;;;;;;;1.40;99.90;;;;;;4989045;28;20067;-66
2021/04/05 18:59:01;;;;;;;;;;;1.30;99.90;;;;;;4985459;28;19926;-66
2021/04/05 19:01:28;;;;;;;;;;;1.20;99.90;;;;;;4979829;28;19930;-66
2021/04/05 19:03:59;;;;;;;;;;;1.20;99.90;;;;;;4971180;28;20049;-67
2021/04/05 19:06:28;;;;;;;;;;;1.10;99.90;;;;;;4984847;28;19933;-67
2021/04/05 19:08:56;;;;;;;;;;;1.10;99.90;;;;;;4987321;28;20477;-67
2021/04/05 19:11:30;;;;;;;;;;;1.10;99.90;;;;;;4987545;28;20188;-66
2021/04/05 19:14:04;;;;;;;;;;;1.10;99.90;;;;;;4988782;28;19922;-67
2021/04/05 19:16:34;;;;;;;;;;;1.10;99.90;;;;;;4986070;28;19965;-65
2021/04/05 19:19:10;;;;;;;;;;;1.00;99.90;;;;;;4974761;28;19992;-66
2021/04/05 19:21:56;;;;;;;;;;;1.00;99.90;;;;;;4973210;28;20191;-66
2021/04/05 19:24:38;;;;;;;;;;;1.00;99.90;;;;;;4992578;28;20016;-66
2021/04/05 19:27:11;;;;;;;;;;;1.00;99.90;;;;;;4987278;28;19925;-67
2021/04/05 19:29:50;;;;;;;;;;;0.90;99.90;;;;;;4992835;28;20158;-66
2021/04/05 19:32:31;;;;;;;;;;;0.90;99.90;;;;;;4988476;28;19926;-66
2021/04/05 19:35:06;;;;;;;;;;;0.90;99.90;;;;;;4995088;28;19945;-66
2021/04/05 19:37:39;;;;;;;;;;;0.90;99.90;;;;;;4986514;28;19922;-66
2021/04/05 19:40:15;;;;;;;;;;;0.80;99.90;;;;;;4977142;28;19926;-65
2021/04/05 19:43:05;;;;;;;;;;;0.80;99.90;;;;;;4982556;28;19980;-67
2021/04/05 19:45:42;;;;;;;;;;;0.80;99.90;;;;;;4979968;28;19928;-66
2021/04/05 19:48:20;;;;;;;;;;;0.80;99.90;;;;;;4990018;28;19940;-66
2021/04/05 19:50:55;;;;;;;;;;;0.80;99.90;;;;;;4974696;28;19929;-66
2021/04/05 19:53:52;;;;;;;;;;;0.80;99.90;;;;;;4988327;28;20370;-66
2021/04/05 19:56:41;;;;;;;;;;;0.70;99.90;;;;;;4973460;28;19930;-65
2021/04/05 19:59:10;;;;;;;;;;;0.70;99.90;;;;;;4974962;28;20286;-66
2021/04/05 20:01:40;;;;;;;;;;;0.70;99.90;;;;;;4990154;28;19928;-66
2021/04/05 20:04:13;;;;;;;;;;;0.70;99.90;;;;;;4986104;28;20089;-65
2021/04/05 20:06:47;;;;;;;;;;;0.70;99.90;;;;;;4988370;28;20006;-66
2021/04/05 20:09:22;;;;;;;;;;;0.70;99.90;;;;;;4977217;28;20030;-65
2021/04/05 20:11:59;;;;;;;;;;;0.70;99.90;;;;;;4985867;28;19922;-66
2021/04/05 20:14:35;;;;;;;;;;;0.70;99.90;;;;;;4989012;28;19936;-65
2021/04/05 20:17:04;;;;;;;;;;;0.70;99.90;;;;;;4992499;28;20444;-66
2021/04/05 20:19:34;;;;;;;;;;;0.70;99.90;;;;;;4988155;28;19928;-65
2021/04/05 20:22:02;;;;;;;;;;;0.70;99.90;;;;;;4981561;28;20283;-65
2021/04/05 20:24:33;;;;;;;;;;;0.60;99.90;;;;;;4987235;28;20304;-66
2021/04/05 20:27:00;;;;;;;;;;;0.60;99.90;;;;;;4991965;28;19945;-66